sensor_id;sensor_type;location;lat;lon;timestamp;pressure;altitude;pressure_sealevel;temperature;humidity
35129;BME280;21301;43.626;10.580;2024-01-15T00:02:00;100508.41;;;7.76;89.01
35129;BME280;21301;43.626;10.580;2024-01-15T00:04:26;100503.50;;;7.71;89.00
35129;BME280;21301;43.626;10.580;2024-01-15T00:06:51;100504.22;;;7.73;88.89
35129;BME280;21301;43.626;10.580;2024-01-15T00:09:17;100498.69;;;7.78;88.51
35129;BME280;21301;43.626;10.580;2024-01-15T00:11:43;100493.16;;;7.82;88.63
35129;BME280;21301;43.626;10.580;2024-01-15T00:14:08;100486.22;;;7.81;88.26
35129;BME280;21301;43.626;10.580;2024-01-15T00:16:34;100482.88;;;7.79;88.34
35129;BME280;21301;43.626;10.580;2024-01-15T00:19:00;100479.84;;;7.85;88.16
35129;BME280;21301;43.626;10.580;2024-01-15T00:21:26;100469.06;;;7.77;88.61
35129;BME280;21301;43.626;10.580;2024-01-15T00:23:53;100468.72;;;7.69;88.41
35129;BME280;21301;43.626;10.580;2024-01-15T00:26:20;100467.16;;;7.66;88.43
35129;BME280;21301;43.626;10.580;2024-01-15T00:28:45;100470.72;;;7.65;88.13
35129;BME280;21301;43.626;10.580;2024-01-15T00:31:11;100459.22;;;7.68;88.25
35129;BME280;21301;43.626;10.580;2024-01-15T00:33:37;100457.94;;;7.74;88.23
35129;BME280;21301;43.626;10.580;2024-01-15T00:36:02;100450.22;;;7.85;88.06
35129;BME280;21301;43.626;10.580;2024-01-15T00:38:28;100434.19;;;7.89;88.03
35129;BME280;21301;43.626;10.580;2024-01-15T00:40:57;100432.94;;;7.82;88.11
35129;BME280;21301;43.626;10.580;2024-01-15T00:43:22;100436.47;;;7.81;88.19
35129;BME280;21301;43.626;10.580;2024-01-15T00:45:48;100431.16;;;7.70;88.34
35129;BME280;21301;43.626;10.580;2024-01-15T00:48:13;100414.72;;;7.68;88.35
35129;BME280;21301;43.626;10.580;2024-01-15T00:50:39;100421.00;;;7.65;88.25
35129;BME280;21301;43.626;10.580;2024-01-15T00:53:04;100418.50;;;7.64;88.08
35129;BME280;21301;43.626;10.580;2024-01-15T00:55:30;100419.84;;;7.57;88.34
35129;BME280;21301;43.626;10.580;2024-01-15T00:57:56;100420.69;;;7.57;88.37
35129;BME280;21301;43.626;10.580;2024-01-15T01:00:21;100418.06;;;7.57;88.24
35129;BME280;21301;43.626;10.580;2024-01-15T01:02:47;100422.38;;;7.58;88.39
35129;BME280;21301;43.626;10.580;2024-01-15T01:05:13;100418.72;;;7.61;88.36
35129;BME280;21301;43.626;10.580;2024-01-15T01:07:38;100408.78;;;7.53;88.03
35129;BME280;21301;43.626;10.580;2024-01-15T01:10:04;100397.34;;;7.41;88.15
35129;BME280;21301;43.626;10.580;2024-01-15T01:12:30;100387.94;;;7.39;88.29
35129;BME280;21301;43.626;10.580;2024-01-15T01:14:56;100390.66;;;7.37;88.29
35129;BME280;21301;43.626;10.580;2024-01-15T01:17:22;100393.06;;;7.40;88.40
35129;BME280;21301;43.626;10.580;2024-01-15T01:19:48;100396.19;;;7.45;88.48
35129;BME280;21301;43.626;10.580;2024-01-15T01:22:14;100383.97;;;7.46;88.42
35129;BME280;21301;43.626;10.580;2024-01-15T01:24:40;100378.22;;;7.41;88.35
35129;BME280;21301;43.626;10.580;2024-01-15T01:27:05;100364.59;;;7.36;88.13
35129;BME280;21301;43.626;10.580;2024-01-15T01:29:31;100364.28;;;7.40;88.79
35129;BME280;21301;43.626;10.580;2024-01-15T01:31:56;100375.25;;;7.45;88.49
35129;BME280;21301;43.626;10.580;2024-01-15T01:34:23;100370.56;;;7.51;88.71
35129;BME280;21301;43.626;10.580;2024-01-15T01:36:49;100362.59;;;7.52;88.06
35129;BME280;21301;43.626;10.580;2024-01-15T01:39:14;100371.69;;;7.59;88.29
35129;BME280;21301;43.626;10.580;2024-01-15T01:41:40;100358.41;;;7.62;88.32
35129;BME280;21301;43.626;10.580;2024-01-15T01:44:06;100352.34;;;7.62;87.95
35129;BME280;21301;43.626;10.580;2024-01-15T01:46:33;100362.59;;;7.65;88.23
35129;BME280;21301;43.626;10.580;2024-01-15T01:49:00;100366.47;;;7.59;88.66
35129;BME280;21301;43.626;10.580;2024-01-15T01:51:31;100358.91;;;7.80;87.98
35129;BME280;21301;43.626;10.580;2024-01-15T01:53:57;100365.66;;;7.96;88.41
35129;BME280;21301;43.626;10.580;2024-01-15T01:56:23;100366.63;;;7.95;87.30
35129;BME280;21301;43.626;10.580;2024-01-15T01:58:49;100368.41;;;7.81;87.80
35129;BME280;21301;43.626;10.580;2024-01-15T02:01:15;100365.13;;;7.54;87.59
35129;BME280;21301;43.626;10.580;2024-01-15T02:03:43;100346.56;;;7.82;88.09
35129;BME280;21301;43.626;10.580;2024-01-15T02:06:08;100345.91;;;7.92;87.92
35129;BME280;21301;43.626;10.580;2024-01-15T02:08:34;100358.25;;;7.89;88.03
35129;BME280;21301;43.626;10.580;2024-01-15T02:11:00;100356.06;;;7.96;87.66
35129;BME280;21301;43.626;10.580;2024-01-15T02:13:26;100359.00;;;7.92;87.16
35129;BME280;21301;43.626;10.580;2024-01-15T02:15:51;100347.16;;;7.86;87.58
35129;BME280;21301;43.626;10.580;2024-01-15T02:18:18;100342.38;;;7.80;86.82
35129;BME280;21301;43.626;10.580;2024-01-15T02:20:43;100342.56;;;7.77;87.05
35129;BME280;21301;43.626;10.580;2024-01-15T02:23:13;100332.44;;;7.72;87.24
35129;BME280;21301;43.626;10.580;2024-01-15T02:25:43;100322.16;;;7.69;86.72
35129;BME280;21301;43.626;10.580;2024-01-15T02:28:13;100320.84;;;7.63;86.55
35129;BME280;21301;43.626;10.580;2024-01-15T02:30:40;100325.75;;;7.68;86.90
35129;BME280;21301;43.626;10.580;2024-01-15T02:33:07;100313.41;;;7.70;86.14
35129;BME280;21301;43.626;10.580;2024-01-15T02:35:34;100316.53;;;7.75;86.07
35129;BME280;21301;43.626;10.580;2024-01-15T02:38:02;100314.97;;;7.73;86.19
35129;BME280;21301;43.626;10.580;2024-01-15T02:40:28;100320.47;;;7.81;86.02
35129;BME280;21301;43.626;10.580;2024-01-15T02:42:53;100317.63;;;7.84;85.88
35129;BME280;21301;43.626;10.580;2024-01-15T02:45:20;100314.41;;;7.80;86.11
35129;BME280;21301;43.626;10.580;2024-01-15T02:47:45;100307.94;;;7.73;86.17
35129;BME280;21301;43.626;10.580;2024-01-15T02:50:11;100303.66;;;7.72;86.15
35129;BME280;21301;43.626;10.580;2024-01-15T02:52:41;100309.81;;;7.71;86.18
35129;BME280;21301;43.626;10.580;2024-01-15T02:55:08;100308.75;;;7.74;85.43
35129;BME280;21301;43.626;10.580;2024-01-15T02:57:34;100310.72;;;7.83;85.56
35129;BME280;21301;43.626;10.580;2024-01-15T03:00:00;100313.03;;;7.87;85.51
35129;BME280;21301;43.626;10.580;2024-01-15T03:02:27;100304.94;;;7.90;85.48
35129;BME280;21301;43.626;10.580;2024-01-15T03:04:52;100300.34;;;7.94;85.20
35129;BME280;21301;43.626;10.580;2024-01-15T03:07:18;100291.75;;;7.92;85.94
35129;BME280;21301;43.626;10.580;2024-01-15T03:09:43;100281.69;;;7.99;85.25
35129;BME280;21301;43.626;10.580;2024-01-15T03:12:09;100288.47;;;8.01;85.47
35129;BME280;21301;43.626;10.580;2024-01-15T03:14:35;100289.16;;;8.16;85.35
35129;BME280;21301;43.626;10.580;2024-01-15T03:17:01;100302.56;;;8.11;85.46
35129;BME280;21301;43.626;10.580;2024-01-15T03:19:27;100290.53;;;8.09;85.33
35129;BME280;21301;43.626;10.580;2024-01-15T03:21:52;100276.81;;;8.05;85.04
35129;BME280;21301;43.626;10.580;2024-01-15T03:24:19;100265.69;;;8.15;85.58
35129;BME280;21301;43.626;10.580;2024-01-15T03:26:44;100259.63;;;8.14;85.60
35129;BME280;21301;43.626;10.580;2024-01-15T03:29:10;100251.81;;;8.25;85.45
35129;BME280;21301;43.626;10.580;2024-01-15T03:31:36;100249.53;;;8.21;85.01
35129;BME280;21301;43.626;10.580;2024-01-15T03:34:01;100250.03;;;8.26;84.84
35129;BME280;21301;43.626;10.580;2024-01-15T03:36:27;100242.88;;;8.28;85.10
35129;BME280;21301;43.626;10.580;2024-01-15T03:38:52;100239.06;;;8.21;85.38
35129;BME280;21301;43.626;10.580;2024-01-15T03:41:18;100241.13;;;8.04;85.15
35129;BME280;21301;43.626;10.580;2024-01-15T03:43:44;100240.84;;;7.96;85.29
35129;BME280;21301;43.626;10.580;2024-01-15T03:46:09;100238.56;;;7.92;85.38
35129;BME280;21301;43.626;10.580;2024-01-15T03:48:35;100237.50;;;7.94;85.83
35129;BME280;21301;43.626;10.580;2024-01-15T03:51:00;100240.22;;;7.93;85.19
35129;BME280;21301;43.626;10.580;2024-01-15T03:53:26;100246.75;;;7.87;85.36
35129;BME280;21301;43.626;10.580;2024-01-15T03:55:52;100236.56;;;7.95;85.31
35129;BME280;21301;43.626;10.580;2024-01-15T03:58:18;100242.09;;;8.03;85.46
35129;BME280;21301;43.626;10.580;2024-01-15T04:00:44;100233.59;;;8.00;85.68
35129;BME280;21301;43.626;10.580;2024-01-15T04:03:10;100232.53;;;8.02;85.90
35129;BME280;21301;43.626;10.580;2024-01-15T04:05:36;100222.72;;;7.93;85.83
35129;BME280;21301;43.626;10.580;2024-01-15T04:08:01;100226.31;;;7.92;85.83
35129;BME280;21301;43.626;10.580;2024-01-15T04:10:27;100213.94;;;7.94;85.47
35129;BME280;21301;43.626;10.580;2024-01-15T04:12:52;100205.97;;;7.96;85.50
35129;BME280;21301;43.626;10.580;2024-01-15T04:15:18;100205.63;;;8.00;85.53
35129;BME280;21301;43.626;10.580;2024-01-15T04:17:44;100199.78;;;7.97;85.69
35129;BME280;21301;43.626;10.580;2024-01-15T04:20:10;100204.78;;;8.00;86.10
35129;BME280;21301;43.626;10.580;2024-01-15T04:22:36;100200.69;;;7.84;86.31
35129;BME280;21301;43.626;10.580;2024-01-15T04:25:02;100194.97;;;7.79;86.40
35129;BME280;21301;43.626;10.580;2024-01-15T04:27:28;100183.75;;;7.77;86.25
35129;BME280;21301;43.626;10.580;2024-01-15T04:29:53;100183.88;;;7.76;86.39
35129;BME280;21301;43.626;10.580;2024-01-15T04:32:19;100187.72;;;7.83;86.24
35129;BME280;21301;43.626;10.580;2024-01-15T04:34:46;100191.78;;;7.87;85.97
35129;BME280;21301;43.626;10.580;2024-01-15T04:37:13;100183.94;;;7.87;85.90
35129;BME280;21301;43.626;10.580;2024-01-15T04:39:39;100173.94;;;7.92;86.43
35129;BME280;21301;43.626;10.580;2024-01-15T04:42:05;100161.91;;;7.89;85.84
35129;BME280;21301;43.626;10.580;2024-01-15T04:44:30;100158.50;;;8.00;85.86
35129;BME280;21301;43.626;10.580;2024-01-15T04:46:56;100158.78;;;8.08;85.90
35129;BME280;21301;43.626;10.580;2024-01-15T04:49:21;100164.13;;;8.07;85.92
35129;BME280;21301;43.626;10.580;2024-01-15T04:51:47;100169.34;;;8.07;85.80
35129;BME280;21301;43.626;10.580;2024-01-15T04:54:13;100163.88;;;7.99;85.69
35129;BME280;21301;43.626;10.580;2024-01-15T04:56:43;100149.91;;;7.87;85.99
35129;BME280;21301;43.626;10.580;2024-01-15T04:59:09;100149.59;;;7.79;86.00
35129;BME280;21301;43.626;10.580;2024-01-15T05:01:35;100143.22;;;7.83;86.53
35129;BME280;21301;43.626;10.580;2024-01-15T05:04:00;100135.75;;;7.89;85.76
35129;BME280;21301;43.626;10.580;2024-01-15T05:06:26;100122.31;;;8.05;86.27
35129;BME280;21301;43.626;10.580;2024-01-15T05:08:53;100129.97;;;8.20;85.96
35129;BME280;21301;43.626;10.580;2024-01-15T05:11:18;100124.41;;;8.24;85.82
35129;BME280;21301;43.626;10.580;2024-01-15T05:13:44;100114.59;;;8.04;85.44
35129;BME280;21301;43.626;10.580;2024-01-15T05:16:09;100111.94;;;7.93;85.80
35129;BME280;21301;43.626;10.580;2024-01-15T05:18:35;100101.97;;;7.98;85.94
35129;BME280;21301;43.626;10.580;2024-01-15T05:21:03;100098.38;;;7.87;86.14
35129;BME280;21301;43.626;10.580;2024-01-15T05:23:31;100104.38;;;7.77;86.12
35129;BME280;21301;43.626;10.580;2024-01-15T05:25:57;100108.00;;;7.87;86.37
35129;BME280;21301;43.626;10.580;2024-01-15T05:28:22;100106.22;;;7.87;86.45
35129;BME280;21301;43.626;10.580;2024-01-15T05:30:48;100108.13;;;7.85;86.14
35129;BME280;21301;43.626;10.580;2024-01-15T05:33:16;100102.41;;;7.80;85.81
35129;BME280;21301;43.626;10.580;2024-01-15T05:35:42;100102.25;;;7.71;86.50
35129;BME280;21301;43.626;10.580;2024-01-15T05:38:07;100114.84;;;7.65;86.38
35129;BME280;21301;43.626;10.580;2024-01-15T05:40:34;100111.25;;;7.66;86.15
35129;BME280;21301;43.626;10.580;2024-01-15T05:42:59;100103.91;;;7.72;86.73
35129;BME280;21301;43.626;10.580;2024-01-15T05:45:26;100109.91;;;7.85;86.21
35129;BME280;21301;43.626;10.580;2024-01-15T05:47:53;100104.56;;;7.86;86.39
35129;BME280;21301;43.626;10.580;2024-01-15T05:50:18;100102.88;;;7.85;86.30
35129;BME280;21301;43.626;10.580;2024-01-15T05:52:44;100107.34;;;7.96;86.36
35129;BME280;21301;43.626;10.580;2024-01-15T05:55:10;100107.47;;;8.06;85.86
35129;BME280;21301;43.626;10.580;2024-01-15T05:57:36;100101.50;;;8.04;85.63
35129;BME280;21301;43.626;10.580;2024-01-15T06:00:03;100101.94;;;7.86;86.13
35129;BME280;21301;43.626;10.580;2024-01-15T06:02:31;100098.22;;;7.78;86.13
35129;BME280;21301;43.626;10.580;2024-01-15T06:04:57;100113.19;;;7.76;85.95
35129;BME280;21301;43.626;10.580;2024-01-15T06:07:23;100126.63;;;7.47;86.65
35129;BME280;21301;43.626;10.580;2024-01-15T06:09:49;100121.84;;;7.65;86.81
35129;BME280;21301;43.626;10.580;2024-01-15T06:12:15;100121.63;;;7.68;86.00
35129;BME280;21301;43.626;10.580;2024-01-15T06:14:40;100115.28;;;7.59;86.52
35129;BME280;21301;43.626;10.580;2024-01-15T06:17:08;100128.81;;;7.53;86.00
35129;BME280;21301;43.626;10.580;2024-01-15T06:19:33;100127.13;;;7.52;86.79
35129;BME280;21301;43.626;10.580;2024-01-15T06:21:59;100116.56;;;7.54;86.34
35129;BME280;21301;43.626;10.580;2024-01-15T06:24:24;100110.16;;;7.58;86.47
35129;BME280;21301;43.626;10.580;2024-01-15T06:26:50;100109.22;;;7.59;86.75
35129;BME280;21301;43.626;10.580;2024-01-15T06:29:16;100113.16;;;7.64;86.17
35129;BME280;21301;43.626;10.580;2024-01-15T06:31:41;100103.06;;;7.71;86.65
35129;BME280;21301;43.626;10.580;2024-01-15T06:34:08;100106.50;;;7.72;86.11
35129;BME280;21301;43.626;10.580;2024-01-15T06:36:34;100120.00;;;7.78;86.61
35129;BME280;21301;43.626;10.580;2024-01-15T06:38:59;100108.69;;;7.78;86.55
35129;BME280;21301;43.626;10.580;2024-01-15T06:41:25;100115.97;;;7.85;86.11
35129;BME280;21301;43.626;10.580;2024-01-15T06:43:51;100115.97;;;7.85;86.43
35129;BME280;21301;43.626;10.580;2024-01-15T06:46:20;100106.91;;;7.78;86.09
35129;BME280;21301;43.626;10.580;2024-01-15T06:48:46;100112.63;;;7.83;86.04
35129;BME280;21301;43.626;10.580;2024-01-15T06:51:12;100122.91;;;7.86;86.34
35129;BME280;21301;43.626;10.580;2024-01-15T06:53:37;100124.22;;;7.92;86.00
35129;BME280;21301;43.626;10.580;2024-01-15T06:56:04;100121.47;;;7.94;86.30
35129;BME280;21301;43.626;10.580;2024-01-15T06:58:31;100124.31;;;7.90;86.27
35129;BME280;21301;43.626;10.580;2024-01-15T07:00:56;100129.84;;;7.99;85.77
35129;BME280;21301;43.626;10.580;2024-01-15T07:03:23;100123.53;;;8.01;85.99
35129;BME280;21301;43.626;10.580;2024-01-15T07:05:49;100115.53;;;7.92;86.02
35129;BME280;21301;43.626;10.580;2024-01-15T07:08:15;100113.41;;;7.97;85.84
35129;BME280;21301;43.626;10.580;2024-01-15T07:10:41;100119.94;;;8.02;86.32
35129;BME280;21301;43.626;10.580;2024-01-15T07:13:06;100118.41;;;8.00;85.85
35129;BME280;21301;43.626;10.580;2024-01-15T07:15:32;100120.19;;;7.99;86.04
35129;BME280;21301;43.626;10.580;2024-01-15T07:17:59;100124.47;;;8.00;85.79
35129;BME280;21301;43.626;10.580;2024-01-15T07:20:25;100131.81;;;7.95;85.66
35129;BME280;21301;43.626;10.580;2024-01-15T07:22:51;100133.91;;;7.79;86.51
35129;BME280;21301;43.626;10.580;2024-01-15T07:25:17;100134.69;;;7.92;86.50
35129;BME280;21301;43.626;10.580;2024-01-15T07:27:42;100127.06;;;8.00;86.31
35129;BME280;21301;43.626;10.580;2024-01-15T07:30:13;100129.16;;;7.84;86.34
35129;BME280;21301;43.626;10.580;2024-01-15T07:32:38;100127.88;;;7.89;86.86
35129;BME280;21301;43.626;10.580;2024-01-15T07:35:06;100129.59;;;8.02;86.50
35129;BME280;21301;43.626;10.580;2024-01-15T07:37:31;100147.63;;;7.94;86.50
35129;BME280;21301;43.626;10.580;2024-01-15T07:39:57;100139.59;;;8.66;85.55
35129;BME280;21301;43.626;10.580;2024-01-15T07:42:23;100139.22;;;9.27;84.38
35129;BME280;21301;43.626;10.580;2024-01-15T07:44:49;100155.59;;;9.51;82.10
35129;BME280;21301;43.626;10.580;2024-01-15T07:47:16;100162.91;;;9.48;81.19
35129;BME280;21301;43.626;10.580;2024-01-15T07:49:42;100161.19;;;9.69;80.18
35129;BME280;21301;43.626;10.580;2024-01-15T07:52:07;100160.81;;;9.19;80.13
35129;BME280;21301;43.626;10.580;2024-01-15T07:54:33;100169.75;;;8.71;80.49
35129;BME280;21301;43.626;10.580;2024-01-15T07:57:02;100157.25;;;10.17;80.10
35129;BME280;21301;43.626;10.580;2024-01-15T07:59:31;100144.59;;;9.14;79.39
35129;BME280;21301;43.626;10.580;2024-01-15T08:01:58;100140.84;;;9.39;79.63
35129;BME280;21301;43.626;10.580;2024-01-15T08:04:24;100142.81;;;8.92;80.43
35129;BME280;21301;43.626;10.580;2024-01-15T08:06:50;100146.41;;;9.02;81.06
35129;BME280;21301;43.626;10.580;2024-01-15T08:09:16;100136.94;;;9.33;81.12
35129;BME280;21301;43.626;10.580;2024-01-15T08:11:42;100129.19;;;12.18;78.50
35129;BME280;21301;43.626;10.580;2024-01-15T08:14:09;100122.72;;;14.48;71.61
35129;BME280;21301;43.626;10.580;2024-01-15T08:16:37;100131.34;;;14.51;68.49
35129;BME280;21301;43.626;10.580;2024-01-15T08:19:03;100139.34;;;12.50;70.32
35129;BME280;21301;43.626;10.580;2024-01-15T08:21:29;100149.25;;;11.51;73.03
35129;BME280;21301;43.626;10.580;2024-01-15T08:23:59;100157.56;;;10.96;73.88
35129;BME280;21301;43.626;10.580;2024-01-15T08:26:25;100166.31;;;10.66;74.88
35129;BME280;21301;43.626;10.580;2024-01-15T08:28:51;100178.50;;;9.93;75.55
35129;BME280;21301;43.626;10.580;2024-01-15T08:31:17;100172.34;;;10.36;75.71
35129;BME280;21301;43.626;10.580;2024-01-15T08:33:43;100170.03;;;10.42;74.66
35129;BME280;21301;43.626;10.580;2024-01-15T08:36:11;100172.72;;;10.10;75.06
35129;BME280;21301;43.626;10.580;2024-01-15T08:38:37;100168.44;;;9.66;76.31
35129;BME280;21301;43.626;10.580;2024-01-15T08:41:03;100166.84;;;10.07;76.24
35129;BME280;21301;43.626;10.580;2024-01-15T08:43:29;100164.41;;;10.47;76.05
35129;BME280;21301;43.626;10.580;2024-01-15T08:45:56;100176.16;;;10.11;76.66
35129;BME280;21301;43.626;10.580;2024-01-15T08:48:22;100177.09;;;9.89;76.97
35129;BME280;21301;43.626;10.580;2024-01-15T08:50:49;100167.91;;;9.83;77.37
35129;BME280;21301;43.626;10.580;2024-01-15T08:53:16;100165.94;;;9.64;77.59
35129;BME280;21301;43.626;10.580;2024-01-15T08:55:43;100178.56;;;9.81;77.86
35129;BME280;21301;43.626;10.580;2024-01-15T08:58:10;100176.94;;;10.22;76.98
35129;BME280;21301;43.626;10.580;2024-01-15T09:00:35;100171.00;;;10.41;76.79
35129;BME280;21301;43.626;10.580;2024-01-15T09:03:01;100173.56;;;10.83;75.84
35129;BME280;21301;43.626;10.580;2024-01-15T09:05:27;100159.50;;;11.64;74.01
35129;BME280;21301;43.626;10.580;2024-01-15T09:07:54;100157.50;;;11.97;72.86
35129;BME280;21301;43.626;10.580;2024-01-15T09:10:20;100157.03;;;11.52;73.13
35129;BME280;21301;43.626;10.580;2024-01-15T09:12:48;100167.31;;;11.15;73.90
35129;BME280;21301;43.626;10.580;2024-01-15T09:15:16;100164.13;;;11.81;72.50
35129;BME280;21301;43.626;10.580;2024-01-15T09:17:42;100157.28;;;12.47;71.17
35129;BME280;21301;43.626;10.580;2024-01-15T09:20:09;100158.66;;;12.88;70.16
35129;BME280;21301;43.626;10.580;2024-01-15T09:22:35;100149.25;;;13.13;69.32
35129;BME280;21301;43.626;10.580;2024-01-15T09:25:01;100143.34;;;13.29;68.32
35129;BME280;21301;43.626;10.580;2024-01-15T09:27:26;100153.34;;;13.53;67.57
35129;BME280;21301;43.626;10.580;2024-01-15T09:29:52;100150.03;;;13.24;67.12
35129;BME280;21301;43.626;10.580;2024-01-15T09:32:18;100165.50;;;12.81;68.42
35129;BME280;21301;43.626;10.580;2024-01-15T09:34:45;100161.78;;;12.27;69.60
35129;BME280;21301;43.626;10.580;2024-01-15T09:37:12;100165.41;;;11.87;69.89
35129;BME280;21301;43.626;10.580;2024-01-15T09:39:39;100160.06;;;11.48;71.10
35129;BME280;21301;43.626;10.580;2024-01-15T09:42:05;100167.19;;;11.17;72.13
35129;BME280;21301;43.626;10.580;2024-01-15T09:44:31;100166.25;;;11.37;72.39
35129;BME280;21301;43.626;10.580;2024-01-15T09:46:57;100164.25;;;11.70;71.80
35129;BME280;21301;43.626;10.580;2024-01-15T09:49:23;100168.72;;;11.99;71.47
35129;BME280;21301;43.626;10.580;2024-01-15T09:51:49;100163.47;;;11.99;71.15
35129;BME280;21301;43.626;10.580;2024-01-15T09:54:16;100158.28;;;12.26;70.68
35129;BME280;21301;43.626;10.580;2024-01-15T09:56:48;100148.28;;;13.14;69.42
35129;BME280;21301;43.626;10.580;2024-01-15T09:59:18;100140.00;;;13.73;67.72
35129;BME280;21301;43.626;10.580;2024-01-15T10:01:45;100138.09;;;13.65;67.76
35129;BME280;21301;43.626;10.580;2024-01-15T10:04:14;100135.47;;;13.65;66.71
35129;BME280;21301;43.626;10.580;2024-01-15T10:06:45;100127.81;;;13.44;66.64
35129;BME280;21301;43.626;10.580;2024-01-15T10:09:12;100133.63;;;13.02;67.73
35129;BME280;21301;43.626;10.580;2024-01-15T10:11:41;100134.91;;;12.88;68.03
35129;BME280;21301;43.626;10.580;2024-01-15T10:14:12;100138.97;;;12.83;68.39
35129;BME280;21301;43.626;10.580;2024-01-15T10:16:41;100144.09;;;12.47;68.43
35129;BME280;21301;43.626;10.580;2024-01-15T10:19:08;100136.28;;;11.88;69.45
35129;BME280;21301;43.626;10.580;2024-01-15T10:21:34;100133.50;;;12.00;69.43
35129;BME280;21301;43.626;10.580;2024-01-15T10:24:02;100137.63;;;12.12;70.92
35129;BME280;21301;43.626;10.580;2024-01-15T10:26:29;100141.31;;;12.39;70.07
35129;BME280;21301;43.626;10.580;2024-01-15T10:28:55;100141.38;;;12.09;69.72
35129;BME280;21301;43.626;10.580;2024-01-15T10:31:22;100125.22;;;12.79;70.08
35129;BME280;21301;43.626;10.580;2024-01-15T10:33:52;100122.56;;;12.89;69.55
35129;BME280;21301;43.626;10.580;2024-01-15T10:36:17;100123.94;;;12.93;69.45
35129;BME280;21301;43.626;10.580;2024-01-15T10:38:44;100123.94;;;13.20;68.95
35129;BME280;21301;43.626;10.580;2024-01-15T10:41:10;100123.06;;;13.30;68.59
35129;BME280;21301;43.626;10.580;2024-01-15T10:43:37;100119.91;;;13.16;68.48
35129;BME280;21301;43.626;10.580;2024-01-15T10:46:03;100113.81;;;13.61;67.95
35129;BME280;21301;43.626;10.580;2024-01-15T10:48:31;100106.63;;;14.42;66.33
35129;BME280;21301;43.626;10.580;2024-01-15T10:50:57;100099.47;;;14.95;65.31
35129;BME280;21301;43.626;10.580;2024-01-15T10:53:26;100098.44;;;15.38;64.41
35129;BME280;21301;43.626;10.580;2024-01-15T10:55:54;100090.97;;;15.25;64.49
35129;BME280;21301;43.626;10.580;2024-01-15T10:58:23;100089.91;;;15.85;63.30
35129;BME280;21301;43.626;10.580;2024-01-15T11:00:50;100086.50;;;16.32;62.38
35129;BME280;21301;43.626;10.580;2024-01-15T11:03:16;100084.94;;;16.54;61.85
35129;BME280;21301;43.626;10.580;2024-01-15T11:05:44;100082.75;;;16.74;61.68
35129;BME280;21301;43.626;10.580;2024-01-15T11:08:10;100069.22;;;16.53;61.70
35129;BME280;21301;43.626;10.580;2024-01-15T11:10:47;100059.94;;;16.49;62.34
35129;BME280;21301;43.626;10.580;2024-01-15T11:13:19;100055.47;;;16.41;62.20
35129;BME280;21301;43.626;10.580;2024-01-15T11:18:26;100052.34;;;17.77;60.18
35129;BME280;21301;43.626;10.580;2024-01-15T11:23:43;100045.69;;;17.12;60.75
35129;BME280;21301;43.626;10.580;2024-01-15T11:26:37;100058.00;;;16.74;60.25
35129;BME280;21301;43.626;10.580;2024-01-15T11:29:05;100046.72;;;17.11;61.02
35129;BME280;21301;43.626;10.580;2024-01-15T11:34:07;100054.88;;;16.14;62.23
35129;BME280;21301;43.626;10.580;2024-01-15T11:39:41;100039.34;;;16.98;60.11
35129;BME280;21301;43.626;10.580;2024-01-15T11:42:11;100029.38;;;17.46;59.52
35129;BME280;21301;43.626;10.580;2024-01-15T11:44:40;100031.72;;;17.79;58.39
35129;BME280;21301;43.626;10.580;2024-01-15T11:47:08;100034.03;;;17.21;59.64
35129;BME280;21301;43.626;10.580;2024-01-15T11:50:01;100041.06;;;16.83;57.45
35129;BME280;21301;43.626;10.580;2024-01-15T11:52:35;100032.50;;;16.65;59.72
35129;BME280;21301;43.626;10.580;2024-01-15T12:00:05;100017.47;;;15.93;58.98
35129;BME280;21301;43.626;10.580;2024-01-15T12:02:43;100016.44;;;16.10;58.76
35129;BME280;21301;43.626;10.580;2024-01-15T12:05:17;100007.53;;;15.95;57.07
35129;BME280;21301;43.626;10.580;2024-01-15T12:07:47;100001.44;;;15.78;57.43
35129;BME280;21301;43.626;10.580;2024-01-15T12:10:16;99992.06;;;16.15;57.83
35129;BME280;21301;43.626;10.580;2024-01-15T12:15:11;99986.13;;;15.96;57.50
35129;BME280;21301;43.626;10.580;2024-01-15T12:17:38;99982.00;;;16.02;57.07
35129;BME280;21301;43.626;10.580;2024-01-15T12:20:08;99981.69;;;15.89;55.77
35129;BME280;21301;43.626;10.580;2024-01-15T12:22:33;99978.03;;;15.49;56.77
35129;BME280;21301;43.626;10.580;2024-01-15T12:24:59;99972.09;;;15.22;56.70
35129;BME280;21301;43.626;10.580;2024-01-15T12:27:25;99969.78;;;15.19;56.94
35129;BME280;21301;43.626;10.580;2024-01-15T12:29:54;99980.38;;;15.36;56.25
35129;BME280;21301;43.626;10.580;2024-01-15T12:32:20;99976.72;;;15.53;58.10
35129;BME280;21301;43.626;10.580;2024-01-15T12:34:50;99985.84;;;15.42;57.72
35129;BME280;21301;43.626;10.580;2024-01-15T12:37:19;99975.06;;;15.76;56.70
35129;BME280;21301;43.626;10.580;2024-01-15T12:39:47;99971.59;;;15.76;56.48
35129;BME280;21301;43.626;10.580;2024-01-15T12:42:16;99974.72;;;15.22;56.76
35129;BME280;21301;43.626;10.580;2024-01-15T12:44:43;99966.94;;;14.80;57.60
35129;BME280;21301;43.626;10.580;2024-01-15T12:47:10;99962.66;;;15.36;56.86
35129;BME280;21301;43.626;10.580;2024-01-15T12:49:37;99962.50;;;15.13;57.23
35129;BME280;21301;43.626;10.580;2024-01-15T12:52:03;99961.66;;;15.12;57.03
35129;BME280;21301;43.626;10.580;2024-01-15T12:54:29;99961.03;;;15.35;56.15
35129;BME280;21301;43.626;10.580;2024-01-15T12:56:55;99955.03;;;15.41;56.32
35129;BME280;21301;43.626;10.580;2024-01-15T12:59:21;99958.22;;;15.20;57.55
35129;BME280;21301;43.626;10.580;2024-01-15T13:01:48;99967.44;;;15.08;57.37
35129;BME280;21301;43.626;10.580;2024-01-15T13:04:24;99962.78;;;14.85;57.63